Pagrindinis puslapis
METAR-TAF:

METAR-TAF

Oro uostai :

Buochs, Šveicarija

platuma: 46-58-28N, ilguma: 8-23-49E, Aukštis: 449 m

Dabartinis oras

Ataskaita buvo paskelbta 19 minutes, ne 21:20 UTC
Vėjas 7 kt iš Pietvakarių
Temperatūra 4°C
Drėgmė 93%
Slėgis 1010 hPa
Matomumas 10 km arba daugiau
Su prošvaistėmis
lietus

METAR: LSZC 272120Z AUTO 23007KT 9999 -RA BKN/// 04/03 Q1010

Laikas: 22:39 (21:39 UTC)

Prognozė

Ataskaita buvo paskelbta 7 valandos ir 14 minutes, ne 14:25 UTC
Prognozė galioja nuo 27 metu 15 UTC su 27 metu 24 UTC
Vėjas 3 kt nuo kintamojo kryptimis
Matomumas 10 km arba daugiau
Apsiniaukę ne aukštis 10000 ft
Tikimybė 40% :
Laikinai
nuo 27 metu 19 UTC su 27 metu 24 UTC
Vėjas 10 kt iš Vakarų/Pietvakarių
lietus

TAF: LSZC 271425Z 2715/2724 VRB03KT 9999 OVC100 PROB40 TEMPO 2719/2724 25010KT RA

Orai ataskaitas ir orų prognozės (METAR, TAF).

turimą stotys yra geltonos ir raudonos taškus žemėlapyje.

Perkelti pele per norėdami pamatyti stoties vardą.

Tada spustelėkite, norėdami matyti oro stebėjimo ir prognozės.

Norėdami pakeisti žemėlapį: spustelėkite ant žalios mygtukų su juodo kryžiaus žemyn,; žalią mygtuką su brūkšneliu, jei norite nutolinti; arba žalių rodyklių gretimoms žemėlapius.


METAR-TAF: